createdAt,value
2024-05-09T00:03:23.875Z,2.74
2024-05-09T00:06:54.395Z,2.64
2024-05-09T00:14:07.577Z,2.52
2024-05-09T00:17:35.206Z,2.49
2024-05-09T00:21:00.005Z,2.48
2024-05-09T00:24:26.334Z,2.60
2024-05-09T00:27:47.060Z,2.70
2024-05-09T00:35:01.349Z,2.74
2024-05-09T00:38:28.955Z,2.68
2024-05-09T00:41:57.127Z,2.60
2024-05-09T00:45:23.191Z,2.53
2024-05-09T00:48:50.649Z,2.48
2024-05-09T00:52:20.254Z,2.43
2024-05-09T00:55:47.930Z,2.43
2024-05-09T00:59:17.496Z,2.47
2024-05-09T01:02:51.688Z,2.61
2024-05-09T01:06:18.748Z,2.79
2024-05-09T01:09:46.139Z,2.91
2024-05-09T01:13:14.599Z,3.04
2024-05-09T01:16:45.939Z,3.14
2024-05-09T01:20:20.025Z,3.29
2024-05-09T01:23:56.716Z,3.41
2024-05-09T01:27:25.825Z,3.50
2024-05-09T01:30:52.835Z,3.58
2024-05-09T01:34:20.319Z,3.65
2024-05-09T01:37:50.762Z,3.71
2024-05-09T01:41:19.281Z,3.77
2024-05-09T01:44:30.637Z,3.80
2024-05-09T01:48:00.324Z,3.83
2024-05-09T01:51:20.831Z,3.85
2024-05-09T01:54:48.224Z,3.86
2024-05-09T01:58:15.677Z,3.91
2024-05-09T02:01:56.342Z,3.94
2024-05-09T02:05:18.098Z,3.97
2024-05-09T02:08:46.262Z,3.96
2024-05-09T02:16:05.136Z,3.99
2024-05-09T02:19:43.431Z,4.01
2024-05-09T02:23:12.171Z,4.02
2024-05-09T02:26:41.150Z,4.03
2024-05-09T02:34:12.066Z,4.06
2024-05-09T02:37:43.665Z,4.09
2024-05-09T02:41:10.573Z,4.12
2024-05-09T02:44:42.666Z,4.15
2024-05-09T02:48:14.511Z,4.19
2024-05-09T02:51:42.734Z,4.21
2024-05-09T02:55:12.227Z,4.24
2024-05-09T02:58:44.633Z,4.27
2024-05-09T03:02:04.698Z,4.28
2024-05-09T03:05:32.317Z,4.29
2024-05-09T03:08:59.959Z,4.31
2024-05-09T03:12:30.886Z,4.35
2024-05-09T03:15:59.371Z,4.38
2024-05-09T03:19:23.692Z,4.40
2024-05-09T03:22:44.244Z,4.41
2024-05-09T03:26:11.745Z,4.39
2024-05-09T03:29:39.969Z,4.42
2024-05-09T03:33:03.936Z,4.46
2024-05-09T03:36:31.540Z,4.51
2024-05-09T03:40:01.020Z,4.54
2024-05-09T03:43:39.149Z,4.58
2024-05-09T03:47:00.501Z,4.61
2024-05-09T03:50:21.959Z,4.63
2024-05-09T03:53:58.505Z,4.70
2024-05-09T03:57:25.885Z,4.76
2024-05-09T04:00:47.042Z,4.83
2024-05-09T04:04:17.259Z,4.87
2024-05-09T04:07:46.951Z,4.91
2024-05-09T04:11:04.863Z,4.94
2024-05-09T04:14:19.818Z,5.00
2024-05-09T04:17:46.282Z,5.05
2024-05-09T04:21:13.772Z,5.15
2024-05-09T04:24:41.319Z,5.24
2024-05-09T04:28:09.670Z,5.31
2024-05-09T04:31:42.104Z,5.41
2024-05-09T04:35:15.042Z,5.51
2024-05-09T04:38:30.166Z,5.59
2024-05-09T04:41:51.378Z,5.70
2024-05-09T04:45:18.955Z,5.77
2024-05-09T04:48:46.570Z,5.86
2024-05-09T04:52:22.589Z,6.03
2024-05-09T04:55:52.187Z,6.23
2024-05-09T04:59:23.943Z,6.35
2024-05-09T05:02:44.570Z,6.42
2024-05-09T05:06:05.818Z,6.52
2024-05-09T05:09:26.678Z,6.59
2024-05-09T05:12:44.555Z,6.67
2024-05-09T05:16:12.978Z,6.76
2024-05-09T05:19:44.128Z,6.95
2024-05-09T05:23:16.763Z,7.20
2024-05-09T05:42:07.647Z,7.90
2024-05-09T05:45:40.472Z,7.87
2024-05-09T05:49:10.022Z,7.79
2024-05-09T05:52:36.469Z,7.77
2024-05-09T05:56:08.472Z,7.77
2024-05-09T06:03:29.646Z,7.66
2024-05-09T06:06:57.136Z,7.65
2024-05-09T06:10:37.559Z,7.70
2024-05-09T06:14:13.574Z,7.78
2024-05-09T06:21:43.111Z,8.12
2024-05-09T06:25:11.765Z,8.21
2024-05-09T06:28:41.566Z,8.30
2024-05-09T06:31:51.208Z,8.38
2024-05-09T06:35:23.483Z,8.53
2024-05-09T06:38:52.857Z,8.71
2024-05-09T06:42:20.255Z,8.97
2024-05-09T06:45:48.611Z,9.23
2024-05-09T06:49:18.674Z,9.40
2024-05-09T06:52:46.389Z,9.56
2024-05-09T06:56:14.759Z,9.51
2024-05-09T06:59:42.897Z,9.53
2024-05-09T07:03:05.903Z,9.59
2024-05-09T07:06:37.191Z,9.49
2024-05-09T07:10:07.795Z,9.56
2024-05-09T07:13:30.846Z,9.54
2024-05-09T07:17:00.500Z,9.60
2024-05-09T07:20:31.630Z,9.85
2024-05-09T07:27:50.642Z,10.09
2024-05-09T07:31:13.572Z,10.20
2024-05-09T07:34:43.083Z,10.42
2024-05-09T07:38:11.567Z,10.89
2024-05-09T07:41:39.222Z,11.07
2024-05-09T07:45:24.238Z,11.12
2024-05-09T07:50:35.372Z,11.08
2024-05-09T07:53:34.334Z,11.06
2024-05-09T07:56:24.557Z,11.05
2024-05-09T07:59:38.053Z,11.01
2024-05-09T08:02:58.139Z,10.89
2024-05-09T08:06:26.290Z,10.72
2024-05-09T08:09:54.253Z,10.74
2024-05-09T08:13:23.067Z,10.67
2024-05-09T08:16:50.662Z,10.58
2024-05-09T08:20:26.670Z,10.44
2024-05-09T08:23:52.326Z,10.29
2024-05-09T08:27:19.856Z,10.25
2024-05-09T08:30:38.845Z,10.26
2024-05-09T08:34:06.496Z,10.24
2024-05-09T08:37:38.685Z,10.13
2024-05-09T08:41:08.867Z,10.02
2024-05-09T08:44:40.996Z,9.93
2024-05-09T08:48:16.157Z,9.91
2024-05-09T08:55:35.451Z,9.87
2024-05-09T08:59:04.256Z,9.97
2024-05-09T09:02:24.773Z,9.95
2024-05-09T09:05:23.165Z,9.91
2024-05-09T09:08:50.594Z,9.88
2024-05-09T09:12:19.959Z,9.84
2024-05-09T09:15:46.107Z,9.76
2024-05-09T09:19:13.761Z,9.75
2024-05-09T09:22:41.328Z,9.84
2024-05-09T09:26:09.761Z,9.83
2024-05-09T09:29:30.338Z,9.85
2024-05-09T09:33:03.698Z,9.84
2024-05-09T09:36:36.315Z,9.86
2024-05-09T09:39:56.702Z,9.78
2024-05-09T09:43:24.243Z,9.67
2024-05-09T09:46:51.658Z,9.60
2024-05-09T09:50:27.348Z,9.54
2024-05-09T09:54:00.298Z,9.48
2024-05-09T09:57:20.463Z,9.47
2024-05-09T10:00:51.035Z,9.52
2024-05-09T10:08:23.145Z,9.65
2024-05-09T10:11:52.447Z,9.65
2024-05-09T10:15:23.856Z,9.67
2024-05-09T10:18:53.433Z,9.66
2024-05-09T10:22:26.942Z,9.62
2024-05-09T10:25:53.020Z,9.60
2024-05-09T10:29:21.470Z,9.54
2024-05-09T10:32:53.023Z,9.54
2024-05-09T10:36:20.602Z,9.54
2024-05-09T10:39:48.049Z,9.64
2024-05-09T10:43:15.672Z,9.73
2024-05-09T10:46:45.149Z,9.84
2024-05-09T10:50:25.324Z,10.02
2024-05-09T10:53:56.179Z,10.28
2024-05-09T10:57:27.961Z,10.34
2024-05-09T11:00:49.698Z,10.37
2024-05-09T11:04:17.442Z,10.49
2024-05-09T11:07:35.172Z,10.43
2024-05-09T11:14:46.183Z,10.90
2024-05-09T11:18:25.026Z,10.98
2024-05-09T11:21:55.614Z,11.09
2024-05-09T11:25:21.658Z,11.05
2024-05-09T11:28:50.790Z,10.98
2024-05-09T11:36:22.396Z,10.68
2024-05-09T11:39:49.828Z,10.61
2024-05-09T11:43:19.017Z,10.68
2024-05-09T11:46:37.519Z,10.68
2024-05-09T11:50:08.246Z,10.59
2024-05-09T11:53:37.762Z,10.48
2024-05-09T11:57:09.969Z,10.45
2024-05-09T12:00:38.173Z,10.44
2024-05-09T12:07:45.210Z,10.47
2024-05-09T12:11:12.750Z,10.48
2024-05-09T12:14:34.799Z,10.44
2024-05-09T12:22:02.392Z,10.41
2024-05-09T12:25:33.912Z,10.48
2024-05-09T12:28:59.630Z,10.38
2024-05-09T12:32:26.458Z,10.30
2024-05-09T12:47:58.939Z,9.81
2024-05-09T12:55:41.384Z,9.65
2024-05-09T12:59:13.365Z,9.63
2024-05-09T13:02:35.581Z,9.66
2024-05-09T13:13:35.393Z,9.53
2024-05-09T13:17:06.865Z,9.45
2024-05-09T13:20:32.905Z,9.39
2024-05-09T13:24:02.521Z,9.33
2024-05-09T13:27:32.864Z,9.32
2024-05-09T13:30:45.802Z,9.32
2024-05-09T13:34:05.943Z,9.34
2024-05-09T13:37:18.941Z,9.38
2024-05-09T13:40:46.995Z,9.49
2024-05-09T13:44:16.563Z,9.70
2024-05-09T13:47:54.955Z,10.18
2024-05-09T13:51:26.906Z,10.75
2024-05-09T13:54:54.419Z,11.28
2024-05-09T13:58:33.814Z,11.61
2024-05-09T14:02:06.060Z,11.78
2024-05-09T14:09:38.777Z,11.62
2024-05-09T14:13:11.012Z,11.54
2024-05-09T14:20:27.227Z,11.89
2024-05-09T14:23:58.116Z,12.08
2024-05-09T14:27:25.510Z,12.28
2024-05-09T14:30:52.933Z,12.47
2024-05-09T14:34:25.328Z,12.55
2024-05-09T14:37:46.281Z,12.59
2024-05-09T14:45:04.604Z,12.68
2024-05-09T14:52:14.359Z,12.51
2024-05-09T14:55:43.121Z,12.28
2024-05-09T15:03:03.342Z,12.08
2024-05-09T15:06:32.959Z,12.08
2024-05-09T15:10:01.510Z,12.08
2024-05-09T15:13:30.192Z,12.03
2024-05-09T15:16:50.544Z,12.01
2024-05-09T15:20:17.293Z,11.99
2024-05-09T15:23:47.610Z,11.96
2024-05-09T15:27:13.799Z,11.95
2024-05-09T15:30:31.041Z,12.08
2024-05-09T15:34:06.257Z,12.25
2024-05-09T15:37:33.981Z,12.28
2024-05-09T15:41:02.508Z,12.27
2024-05-09T15:44:30.590Z,12.34
2024-05-09T15:47:52.125Z,12.48
2024-05-09T15:51:20.593Z,12.61
2024-05-09T15:54:48.044Z,12.63
2024-05-09T15:58:13.415Z,12.66
2024-05-09T16:01:41.012Z,12.71
2024-05-09T16:05:08.803Z,12.72
2024-05-09T16:08:29.073Z,12.77
2024-05-09T16:11:59.676Z,12.86
2024-05-09T16:15:26.215Z,12.95
2024-05-09T16:18:35.213Z,12.96
2024-05-09T16:22:02.699Z,12.98
2024-05-09T16:25:37.154Z,13.03
2024-05-09T16:29:06.902Z,13.07
2024-05-09T16:32:32.741Z,13.10
2024-05-09T16:36:13.884Z,13.07
2024-05-09T16:39:45.900Z,13.04
2024-05-09T16:43:13.608Z,13.02
2024-05-09T16:46:33.539Z,12.98
2024-05-09T16:49:59.649Z,12.94
2024-05-09T16:53:27.810Z,12.88
2024-05-09T17:00:45.710Z,12.75
2024-05-09T17:03:56.285Z,12.68
2024-05-09T17:07:17.662Z,12.64
2024-05-09T17:10:38.172Z,12.59
2024-05-09T17:14:07.972Z,12.49
2024-05-09T17:17:38.705Z,12.39
2024-05-09T17:21:05.538Z,12.34
2024-05-09T17:24:25.687Z,12.30
2024-05-09T17:27:45.751Z,12.23
2024-05-09T17:30:52.141Z,12.15
2024-05-09T17:34:19.736Z,12.09
2024-05-09T17:37:35.799Z,12.02
2024-05-09T17:40:57.104Z,11.96
2024-05-09T17:44:16.882Z,11.91
2024-05-09T17:47:35.861Z,11.84
2024-05-09T17:51:03.274Z,11.79
2024-05-09T17:54:15.840Z,11.72
2024-05-09T17:57:41.947Z,11.65
2024-05-09T18:01:09.597Z,11.58
2024-05-09T18:04:31.787Z,11.51
2024-05-09T18:07:40.911Z,11.44
2024-05-09T18:10:50.684Z,11.37
2024-05-09T18:14:19.711Z,11.28
2024-05-09T18:21:04.251Z,11.03
2024-05-09T18:24:24.714Z,10.91
2024-05-09T18:27:46.261Z,10.76
2024-05-09T18:31:04.298Z,10.61
2024-05-09T18:34:30.966Z,10.47
2024-05-09T18:41:37.410Z,10.19
2024-05-09T18:44:31.096Z,10.05
2024-05-09T18:47:58.614Z,9.94
2024-05-09T18:51:26.536Z,9.78
2024-05-09T18:54:53.817Z,9.62
2024-05-09T18:58:21.363Z,9.47
2024-05-09T19:01:40.611Z,9.33
2024-05-09T19:05:03.314Z,9.20
2024-05-09T19:08:29.305Z,9.07
2024-05-09T19:12:01.854Z,8.96
2024-05-09T19:15:04.625Z,8.87
2024-05-09T19:18:31.200Z,8.79
2024-05-09T19:22:03.863Z,8.69
2024-05-09T19:25:30.361Z,8.61
2024-05-09T19:28:59.808Z,8.54
2024-05-09T19:32:12.291Z,8.47
2024-05-09T19:35:40.114Z,8.41
2024-05-09T19:39:07.573Z,8.35
2024-05-09T19:42:40.960Z,8.23
2024-05-09T19:50:10.735Z,8.00
2024-05-09T19:53:34.924Z,7.90
2024-05-09T19:57:06.872Z,7.78
2024-05-09T20:00:17.885Z,7.69
2024-05-09T20:03:54.456Z,7.62
2024-05-09T20:07:20.837Z,7.59
2024-05-09T20:10:33.289Z,7.58
2024-05-09T20:14:03.677Z,7.55
2024-05-09T20:17:31.018Z,7.50
2024-05-09T20:20:59.750Z,7.43
2024-05-09T20:24:17.228Z,7.35
2024-05-09T20:27:27.672Z,7.30
2024-05-09T20:30:52.741Z,7.24
2024-05-09T20:34:11.506Z,7.18
2024-05-09T20:37:40.707Z,7.12
2024-05-09T20:40:45.959Z,7.09
2024-05-09T20:44:03.946Z,7.06
2024-05-09T20:47:28.778Z,7.03
2024-05-09T20:50:51.472Z,7.06
2024-05-09T20:54:10.572Z,7.01
2024-05-09T20:57:28.236Z,6.94
2024-05-09T21:00:46.533Z,6.85
2024-05-09T21:04:13.008Z,6.74
2024-05-09T21:07:28.116Z,6.67
2024-05-09T21:10:42.060Z,6.60
2024-05-09T21:13:47.109Z,6.54
2024-05-09T21:16:54.872Z,6.50
2024-05-09T21:20:20.192Z,6.47
2024-05-09T21:23:46.319Z,6.44
2024-05-09T21:27:10.396Z,6.40
2024-05-09T21:30:42.023Z,6.36
2024-05-09T21:34:10.726Z,6.35
2024-05-09T21:37:30.777Z,6.40
2024-05-09T21:40:56.821Z,6.44
2024-05-09T21:44:29.483Z,6.47
2024-05-09T21:48:04.855Z,6.54
2024-05-09T21:51:32.549Z,6.61
2024-05-09T21:55:05.273Z,6.66
2024-05-09T21:58:32.718Z,6.71
2024-05-09T22:02:05.795Z,6.75
2024-05-09T22:05:34.027Z,6.81
2024-05-09T22:09:02.461Z,6.85
2024-05-09T22:12:34.966Z,6.87
2024-05-09T22:16:19.836Z,6.86
2024-05-09T22:19:40.286Z,6.84
2024-05-09T22:23:09.098Z,6.80
2024-05-09T22:26:40.287Z,6.72
2024-05-09T22:30:11.771Z,6.63
2024-05-09T22:33:44.703Z,6.60
2024-05-09T22:37:13.713Z,6.53
2024-05-09T22:40:47.654Z,6.48
2024-05-09T22:44:21.058Z,6.47
2024-05-09T22:47:48.609Z,6.47
2024-05-09T22:51:17.200Z,6.49
2024-05-09T22:54:44.584Z,6.52
2024-05-09T22:58:18.131Z,6.57
2024-05-09T23:01:46.895Z,6.66
2024-05-09T23:05:18.223Z,6.78
2024-05-09T23:08:45.622Z,6.89
2024-05-09T23:12:28.900Z,7.00
2024-05-09T23:16:03.479Z,7.12
2024-05-09T23:19:34.429Z,7.21
2024-05-09T23:23:04.757Z,7.26
2024-05-09T23:26:33.504Z,7.32
2024-05-09T23:30:03.463Z,7.40
2024-05-09T23:33:51.777Z,7.49
2024-05-09T23:37:25.528Z,7.56
2024-05-09T23:40:40.236Z,7.58
2024-05-09T23:44:10.270Z,7.60
2024-05-09T23:47:42.662Z,7.64
2024-05-09T23:51:10.772Z,7.68
2024-05-09T23:54:29.083Z,7.72
2024-05-09T23:57:50.154Z,7.77
